sensor_id;sensor_type;location;lat;lon;timestamp;P1;durP1;ratioP1;P2;durP2;ratioP2
36751;SDS011;22718;49.494;7.036;2023-03-20T00:00:46;13.40;;;8.30;;
36751;SDS011;22718;49.494;7.036;2023-03-20T00:03:17;13.05;;;7.82;;
36751;SDS011;22718;49.494;7.036;2023-03-20T00:05:43;14.60;;;8.20;;
36751;SDS011;22718;49.494;7.036;2023-03-20T00:08:09;14.80;;;8.38;;
36751;SDS011;22718;49.494;7.036;2023-03-20T00:10:40;14.23;;;8.27;;
36751;SDS011;22718;49.494;7.036;2023-03-20T00:13:29;17.08;;;9.55;;
36751;SDS011;22718;49.494;7.036;2023-03-20T00:15:54;17.95;;;8.07;;
36751;SDS011;22718;49.494;7.036;2023-03-20T00:18:22;15.75;;;8.52;;
36751;SDS011;22718;49.494;7.036;2023-03-20T00:20:49;15.00;;;8.45;;
36751;SDS011;22718;49.494;7.036;2023-03-20T00:23:16;21.38;;;7.68;;
36751;SDS011;22718;49.494;7.036;2023-03-20T00:25:42;15.90;;;8.13;;
36751;SDS011;22718;49.494;7.036;2023-03-20T00:28:28;14.02;;;8.05;;
36751;SDS011;22718;49.494;7.036;2023-03-20T00:31:01;14.07;;;8.40;;
36751;SDS011;22718;49.494;7.036;2023-03-20T00:33:27;13.77;;;8.05;;
36751;SDS011;22718;49.494;7.036;2023-03-20T00:35:55;16.27;;;8.88;;
36751;SDS011;22718;49.494;7.036;2023-03-20T00:38:22;12.88;;;8.73;;
36751;SDS011;22718;49.494;7.036;2023-03-20T00:40:48;16.30;;;9.38;;
36751;SDS011;22718;49.494;7.036;2023-03-20T00:43:14;16.80;;;9.35;;
36751;SDS011;22718;49.494;7.036;2023-03-20T00:45:40;15.90;;;9.05;;
36751;SDS011;22718;49.494;7.036;2023-03-20T00:48:08;15.05;;;8.88;;
36751;SDS011;22718;49.494;7.036;2023-03-20T00:50:41;15.93;;;9.02;;
36751;SDS011;22718;49.494;7.036;2023-03-20T00:53:08;45.60;;;11.82;;
36751;SDS011;22718;49.494;7.036;2023-03-20T00:55:38;19.83;;;8.88;;
36751;SDS011;22718;49.494;7.036;2023-03-20T00:58:05;17.95;;;9.48;;
36751;SDS011;22718;49.494;7.036;2023-03-20T01:03:17;19.77;;;10.48;;
36751;SDS011;22718;49.494;7.036;2023-03-20T01:05:46;15.88;;;9.68;;
36751;SDS011;22718;49.494;7.036;2023-03-20T01:08:13;16.58;;;9.32;;
36751;SDS011;22718;49.494;7.036;2023-03-20T01:10:41;20.65;;;10.35;;
36751;SDS011;22718;49.494;7.036;2023-03-20T01:13:12;30.13;;;10.82;;
36751;SDS011;22718;49.494;7.036;2023-03-20T01:15:43;20.73;;;9.43;;
36751;SDS011;22718;49.494;7.036;2023-03-20T01:18:11;25.85;;;10.45;;
36751;SDS011;22718;49.494;7.036;2023-03-20T01:20:38;24.00;;;9.05;;
36751;SDS011;22718;49.494;7.036;2023-03-20T01:23:04;30.50;;;9.75;;
36751;SDS011;22718;49.494;7.036;2023-03-20T01:25:30;68.65;;;12.40;;
36751;SDS011;22718;49.494;7.036;2023-03-20T01:27:56;136.88;;;15.43;;
36751;SDS011;22718;49.494;7.036;2023-03-20T01:32:58;46.22;;;10.52;;
36751;SDS011;22718;49.494;7.036;2023-03-20T01:35:26;86.60;;;14.75;;
36751;SDS011;22718;49.494;7.036;2023-03-20T01:37:53;48.92;;;10.07;;
36751;SDS011;22718;49.494;7.036;2023-03-20T01:40:30;30.48;;;9.30;;
36751;SDS011;22718;49.494;7.036;2023-03-20T01:43:16;21.48;;;8.85;;
36751;SDS011;22718;49.494;7.036;2023-03-20T01:51:19;35.78;;;11.02;;
36751;SDS011;22718;49.494;7.036;2023-03-20T01:53:48;38.00;;;10.70;;
36751;SDS011;22718;49.494;7.036;2023-03-20T01:56:22;45.15;;;11.05;;
36751;SDS011;22718;49.494;7.036;2023-03-20T01:58:51;17.77;;;9.38;;
36751;SDS011;22718;49.494;7.036;2023-03-20T02:01:22;16.05;;;9.30;;
36751;SDS011;22718;49.494;7.036;2023-03-20T02:03:50;24.92;;;10.70;;
36751;SDS011;22718;49.494;7.036;2023-03-20T02:06:16;19.08;;;10.77;;
36751;SDS011;22718;49.494;7.036;2023-03-20T02:08:46;18.45;;;10.18;;
36751;SDS011;22718;49.494;7.036;2023-03-20T02:11:13;20.45;;;10.05;;
36751;SDS011;22718;49.494;7.036;2023-03-20T02:13:41;17.63;;;10.25;;
36751;SDS011;22718;49.494;7.036;2023-03-20T02:16:10;17.08;;;9.57;;
36751;SDS011;22718;49.494;7.036;2023-03-20T02:18:40;17.42;;;10.82;;
36751;SDS011;22718;49.494;7.036;2023-03-20T02:34:47;17.50;;;10.23;;
36751;SDS011;22718;49.494;7.036;2023-03-20T02:37:32;21.85;;;11.85;;
36751;SDS011;22718;49.494;7.036;2023-03-20T02:42:44;20.85;;;10.88;;
36751;SDS011;22718;49.494;7.036;2023-03-20T02:45:29;20.13;;;10.45;;
36751;SDS011;22718;49.494;7.036;2023-03-20T02:48:26;19.90;;;11.52;;
36751;SDS011;22718;49.494;7.036;2023-03-20T02:51:18;20.77;;;11.32;;
36751;SDS011;22718;49.494;7.036;2023-03-20T03:04:56;24.77;;;11.85;;
36751;SDS011;22718;49.494;7.036;2023-03-20T03:07:25;21.02;;;11.77;;
36751;SDS011;22718;49.494;7.036;2023-03-20T03:09:55;23.85;;;12.20;;
36751;SDS011;22718;49.494;7.036;2023-03-20T03:12:39;18.88;;;11.65;;
36751;SDS011;22718;49.494;7.036;2023-03-20T03:15:29;20.80;;;10.80;;
36751;SDS011;22718;49.494;7.036;2023-03-20T03:17:56;23.92;;;12.20;;
36751;SDS011;22718;49.494;7.036;2023-03-20T03:20:30;21.65;;;11.98;;
36751;SDS011;22718;49.494;7.036;2023-03-20T03:22:58;24.65;;;12.75;;
36751;SDS011;22718;49.494;7.036;2023-03-20T03:25:26;35.70;;;13.43;;
36751;SDS011;22718;49.494;7.036;2023-03-20T03:30:53;29.50;;;12.17;;
36751;SDS011;22718;49.494;7.036;2023-03-20T03:33:23;100.20;;;15.40;;
36751;SDS011;22718;49.494;7.036;2023-03-20T03:35:53;176.95;;;20.55;;
36751;SDS011;22718;49.494;7.036;2023-03-20T03:38:29;91.47;;;16.52;;
36751;SDS011;22718;49.494;7.036;2023-03-20T03:46:25;141.23;;;17.42;;
36751;SDS011;22718;49.494;7.036;2023-03-20T03:48:57;65.72;;;14.77;;
36751;SDS011;22718;49.494;7.036;2023-03-20T03:51:27;181.02;;;20.65;;
36751;SDS011;22718;49.494;7.036;2023-03-20T03:54:29;135.55;;;17.45;;
36751;SDS011;22718;49.494;7.036;2023-03-20T03:56:53;41.78;;;13.38;;
36751;SDS011;22718;49.494;7.036;2023-03-20T03:59:20;48.20;;;13.23;;
36751;SDS011;22718;49.494;7.036;2023-03-20T04:01:50;23.25;;;11.93;;
36751;SDS011;22718;49.494;7.036;2023-03-20T04:04:17;30.35;;;12.00;;
36751;SDS011;22718;49.494;7.036;2023-03-20T04:06:44;31.65;;;13.88;;
36751;SDS011;22718;49.494;7.036;2023-03-20T04:09:16;29.20;;;12.95;;
36751;SDS011;22718;49.494;7.036;2023-03-20T04:11:42;27.50;;;13.18;;
36751;SDS011;22718;49.494;7.036;2023-03-20T04:14:11;27.13;;;14.57;;
36751;SDS011;22718;49.494;7.036;2023-03-20T04:16:37;32.42;;;13.68;;
36751;SDS011;22718;49.494;7.036;2023-03-20T04:19:02;43.67;;;15.48;;
36751;SDS011;22718;49.494;7.036;2023-03-20T04:21:28;55.25;;;15.43;;
36751;SDS011;22718;49.494;7.036;2023-03-20T04:23:57;34.55;;;15.63;;
36751;SDS011;22718;49.494;7.036;2023-03-20T04:26:25;31.42;;;15.48;;
36751;SDS011;22718;49.494;7.036;2023-03-20T04:28:51;40.40;;;14.80;;
36751;SDS011;22718;49.494;7.036;2023-03-20T04:31:17;30.70;;;15.57;;
36751;SDS011;22718;49.494;7.036;2023-03-20T04:33:43;42.97;;;15.38;;
36751;SDS011;22718;49.494;7.036;2023-03-20T04:36:09;54.20;;;16.27;;
36751;SDS011;22718;49.494;7.036;2023-03-20T04:38:35;40.53;;;14.98;;
36751;SDS011;22718;49.494;7.036;2023-03-20T04:41:01;77.78;;;17.10;;
36751;SDS011;22718;49.494;7.036;2023-03-20T04:43:27;81.50;;;17.35;;
36751;SDS011;22718;49.494;7.036;2023-03-20T04:45:53;42.65;;;15.85;;
36751;SDS011;22718;49.494;7.036;2023-03-20T04:48:19;39.72;;;15.95;;
36751;SDS011;22718;49.494;7.036;2023-03-20T04:50:44;72.47;;;17.73;;
36751;SDS011;22718;49.494;7.036;2023-03-20T04:53:12;54.08;;;18.15;;
36751;SDS011;22718;49.494;7.036;2023-03-20T04:55:39;53.83;;;17.85;;
36751;SDS011;22718;49.494;7.036;2023-03-20T04:58:05;84.90;;;21.55;;
36751;SDS011;22718;49.494;7.036;2023-03-20T05:00:31;56.67;;;20.27;;
36751;SDS011;22718;49.494;7.036;2023-03-20T05:02:57;40.25;;;17.40;;
36751;SDS011;22718;49.494;7.036;2023-03-20T05:05:24;43.25;;;17.95;;
36751;SDS011;22718;49.494;7.036;2023-03-20T05:07:50;58.33;;;21.10;;
36751;SDS011;22718;49.494;7.036;2023-03-20T05:10:16;110.75;;;23.05;;
36751;SDS011;22718;49.494;7.036;2023-03-20T05:12:43;58.88;;;19.45;;
36751;SDS011;22718;49.494;7.036;2023-03-20T05:15:08;47.60;;;20.23;;
36751;SDS011;22718;49.494;7.036;2023-03-20T05:17:34;74.40;;;21.83;;
36751;SDS011;22718;49.494;7.036;2023-03-20T05:20:00;54.85;;;21.05;;
36751;SDS011;22718;49.494;7.036;2023-03-20T05:25:12;48.30;;;20.50;;
36751;SDS011;22718;49.494;7.036;2023-03-20T05:27:37;54.55;;;18.38;;
36751;SDS011;22718;49.494;7.036;2023-03-20T05:30:03;40.10;;;18.58;;
36751;SDS011;22718;49.494;7.036;2023-03-20T05:32:29;42.67;;;17.23;;
36751;SDS011;22718;49.494;7.036;2023-03-20T05:34:55;47.75;;;20.33;;
36751;SDS011;22718;49.494;7.036;2023-03-20T05:37:21;49.67;;;18.77;;
36751;SDS011;22718;49.494;7.036;2023-03-20T05:39:46;39.92;;;18.70;;
36751;SDS011;22718;49.494;7.036;2023-03-20T05:42:12;46.70;;;17.63;;
36751;SDS011;22718;49.494;7.036;2023-03-20T05:44:38;46.67;;;17.83;;
36751;SDS011;22718;49.494;7.036;2023-03-20T05:47:03;38.33;;;18.45;;
36751;SDS011;22718;49.494;7.036;2023-03-20T05:49:29;45.72;;;18.75;;
36751;SDS011;22718;49.494;7.036;2023-03-20T05:51:55;41.17;;;18.05;;
36751;SDS011;22718;49.494;7.036;2023-03-20T05:54:21;43.80;;;18.73;;
36751;SDS011;22718;49.494;7.036;2023-03-20T05:56:47;42.25;;;17.90;;
36751;SDS011;22718;49.494;7.036;2023-03-20T05:59:13;42.15;;;16.35;;
36751;SDS011;22718;49.494;7.036;2023-03-20T06:04:20;42.70;;;17.55;;
36751;SDS011;22718;49.494;7.036;2023-03-20T06:06:49;37.33;;;15.52;;
36751;SDS011;22718;49.494;7.036;2023-03-20T06:09:15;37.78;;;16.20;;
36751;SDS011;22718;49.494;7.036;2023-03-20T06:11:40;30.00;;;15.35;;
36751;SDS011;22718;49.494;7.036;2023-03-20T06:14:06;28.83;;;15.18;;
36751;SDS011;22718;49.494;7.036;2023-03-20T06:16:32;30.92;;;14.40;;
36751;SDS011;22718;49.494;7.036;2023-03-20T06:18:58;31.10;;;14.52;;
36751;SDS011;22718;49.494;7.036;2023-03-20T06:21:23;30.90;;;15.80;;
36751;SDS011;22718;49.494;7.036;2023-03-20T06:23:53;40.47;;;20.00;;
36751;SDS011;22718;49.494;7.036;2023-03-20T06:26:24;27.75;;;13.80;;
36751;SDS011;22718;49.494;7.036;2023-03-20T06:28:51;28.88;;;13.43;;
36751;SDS011;22718;49.494;7.036;2023-03-20T06:31:17;27.17;;;14.40;;
36751;SDS011;22718;49.494;7.036;2023-03-20T06:33:44;31.13;;;14.43;;
36751;SDS011;22718;49.494;7.036;2023-03-20T06:36:10;36.00;;;14.15;;
36751;SDS011;22718;49.494;7.036;2023-03-20T06:38:36;27.98;;;14.60;;
36751;SDS011;22718;49.494;7.036;2023-03-20T06:41:02;23.33;;;12.20;;
36751;SDS011;22718;49.494;7.036;2023-03-20T06:43:27;30.95;;;14.38;;
36751;SDS011;22718;49.494;7.036;2023-03-20T06:45:53;27.75;;;12.77;;
36751;SDS011;22718;49.494;7.036;2023-03-20T06:48:19;26.40;;;12.07;;
36751;SDS011;22718;49.494;7.036;2023-03-20T06:50:47;22.98;;;11.98;;
36751;SDS011;22718;49.494;7.036;2023-03-20T06:53:13;27.10;;;12.15;;
36751;SDS011;22718;49.494;7.036;2023-03-20T06:55:39;24.30;;;12.02;;
36751;SDS011;22718;49.494;7.036;2023-03-20T06:58:05;23.95;;;11.98;;
36751;SDS011;22718;49.494;7.036;2023-03-20T07:00:30;26.60;;;11.07;;
36751;SDS011;22718;49.494;7.036;2023-03-20T07:02:58;22.60;;;11.00;;
36751;SDS011;22718;49.494;7.036;2023-03-20T07:05:24;21.98;;;11.50;;
36751;SDS011;22718;49.494;7.036;2023-03-20T07:07:50;18.08;;;9.48;;
36751;SDS011;22718;49.494;7.036;2023-03-20T07:10:15;19.17;;;8.85;;
36751;SDS011;22718;49.494;7.036;2023-03-20T07:12:41;17.30;;;9.18;;
36751;SDS011;22718;49.494;7.036;2023-03-20T07:15:10;16.95;;;9.52;;
36751;SDS011;22718;49.494;7.036;2023-03-20T07:17:36;15.13;;;8.02;;
36751;SDS011;22718;49.494;7.036;2023-03-20T07:20:03;14.00;;;7.35;;
36751;SDS011;22718;49.494;7.036;2023-03-20T07:22:29;15.23;;;6.88;;
36751;SDS011;22718;49.494;7.036;2023-03-20T07:24:56;14.85;;;8.45;;
36751;SDS011;22718;49.494;7.036;2023-03-20T07:27:22;16.42;;;7.82;;
36751;SDS011;22718;49.494;7.036;2023-03-20T07:29:53;14.73;;;8.63;;
36751;SDS011;22718;49.494;7.036;2023-03-20T07:32:19;14.63;;;7.70;;
36751;SDS011;22718;49.494;7.036;2023-03-20T07:34:45;17.35;;;8.45;;
36751;SDS011;22718;49.494;7.036;2023-03-20T07:37:12;17.48;;;8.85;;
36751;SDS011;22718;49.494;7.036;2023-03-20T07:39:44;16.08;;;8.85;;
36751;SDS011;22718;49.494;7.036;2023-03-20T07:42:09;15.90;;;7.93;;
36751;SDS011;22718;49.494;7.036;2023-03-20T07:44:37;14.88;;;7.95;;
36751;SDS011;22718;49.494;7.036;2023-03-20T07:47:03;16.73;;;8.20;;
36751;SDS011;22718;49.494;7.036;2023-03-20T07:49:31;14.45;;;8.07;;
36751;SDS011;22718;49.494;7.036;2023-03-20T07:51:57;15.95;;;8.60;;
36751;SDS011;22718;49.494;7.036;2023-03-20T07:54:26;14.13;;;7.32;;
36751;SDS011;22718;49.494;7.036;2023-03-20T07:56:55;16.75;;;7.68;;
36751;SDS011;22718;49.494;7.036;2023-03-20T07:59:21;15.48;;;8.13;;
36751;SDS011;22718;49.494;7.036;2023-03-20T08:01:50;12.70;;;6.05;;
36751;SDS011;22718;49.494;7.036;2023-03-20T08:04:21;14.15;;;7.28;;
36751;SDS011;22718;49.494;7.036;2023-03-20T08:06:47;12.43;;;6.05;;
36751;SDS011;22718;49.494;7.036;2023-03-20T08:09:14;11.32;;;5.97;;
36751;SDS011;22718;49.494;7.036;2023-03-20T08:11:40;12.48;;;6.28;;
36751;SDS011;22718;49.494;7.036;2023-03-20T08:14:06;12.50;;;6.65;;
36751;SDS011;22718;49.494;7.036;2023-03-20T08:16:31;11.13;;;6.25;;
36751;SDS011;22718;49.494;7.036;2023-03-20T08:19:00;11.88;;;6.32;;
36751;SDS011;22718;49.494;7.036;2023-03-20T08:21:27;9.98;;;6.07;;
36751;SDS011;22718;49.494;7.036;2023-03-20T08:23:53;13.38;;;5.95;;
36751;SDS011;22718;49.494;7.036;2023-03-20T08:26:20;10.48;;;5.57;;
36751;SDS011;22718;49.494;7.036;2023-03-20T08:28:46;13.18;;;5.25;;
36751;SDS011;22718;49.494;7.036;2023-03-20T08:31:11;12.23;;;6.15;;
36751;SDS011;22718;49.494;7.036;2023-03-20T08:33:40;14.70;;;6.38;;
36751;SDS011;22718;49.494;7.036;2023-03-20T08:36:09;15.13;;;7.72;;
36751;SDS011;22718;49.494;7.036;2023-03-20T08:38:41;12.48;;;5.70;;
36751;SDS011;22718;49.494;7.036;2023-03-20T08:41:07;12.98;;;5.82;;
36751;SDS011;22718;49.494;7.036;2023-03-20T08:43:33;12.80;;;6.15;;
36751;SDS011;22718;49.494;7.036;2023-03-20T08:45:58;10.20;;;6.10;;
36751;SDS011;22718;49.494;7.036;2023-03-20T08:48:24;11.52;;;5.45;;
36751;SDS011;22718;49.494;7.036;2023-03-20T08:50:50;14.73;;;6.78;;
36751;SDS011;22718;49.494;7.036;2023-03-20T08:53:16;11.93;;;5.22;;
36751;SDS011;22718;49.494;7.036;2023-03-20T08:55:46;12.10;;;6.38;;
36751;SDS011;22718;49.494;7.036;2023-03-20T08:58:13;15.13;;;7.53;;
36751;SDS011;22718;49.494;7.036;2023-03-20T09:00:38;12.63;;;5.88;;
36751;SDS011;22718;49.494;7.036;2023-03-20T09:03:06;12.77;;;6.60;;
36751;SDS011;22718;49.494;7.036;2023-03-20T09:05:31;11.65;;;6.00;;
36751;SDS011;22718;49.494;7.036;2023-03-20T09:08:00;11.40;;;5.53;;
36751;SDS011;22718;49.494;7.036;2023-03-20T09:10:29;10.73;;;5.68;;
36751;SDS011;22718;49.494;7.036;2023-03-20T09:12:55;11.93;;;5.28;;
36751;SDS011;22718;49.494;7.036;2023-03-20T09:15:20;12.57;;;5.57;;
36751;SDS011;22718;49.494;7.036;2023-03-20T09:17:52;16.48;;;5.78;;
36751;SDS011;22718;49.494;7.036;2023-03-20T09:20:18;11.55;;;5.40;;
36751;SDS011;22718;49.494;7.036;2023-03-20T09:22:44;12.60;;;6.10;;
36751;SDS011;22718;49.494;7.036;2023-03-20T09:25:15;14.15;;;5.18;;
36751;SDS011;22718;49.494;7.036;2023-03-20T09:27:44;14.70;;;6.18;;
36751;SDS011;22718;49.494;7.036;2023-03-20T09:30:10;10.00;;;4.88;;
36751;SDS011;22718;49.494;7.036;2023-03-20T09:32:37;12.02;;;5.55;;
36751;SDS011;22718;49.494;7.036;2023-03-20T09:35:03;11.13;;;4.40;;
36751;SDS011;22718;49.494;7.036;2023-03-20T09:37:33;8.70;;;4.50;;
36751;SDS011;22718;49.494;7.036;2023-03-20T09:39:59;10.95;;;3.67;;
36751;SDS011;22718;49.494;7.036;2023-03-20T09:42:37;8.02;;;3.28;;
36751;SDS011;22718;49.494;7.036;2023-03-20T09:48:11;7.63;;;2.97;;
36751;SDS011;22718;49.494;7.036;2023-03-20T09:53:35;8.45;;;3.75;;
36751;SDS011;22718;49.494;7.036;2023-03-20T09:56:08;9.70;;;4.78;;
36751;SDS011;22718;49.494;7.036;2023-03-20T09:58:38;8.50;;;4.07;;
36751;SDS011;22718;49.494;7.036;2023-03-20T10:01:10;12.90;;;4.25;;
36751;SDS011;22718;49.494;7.036;2023-03-20T10:06:12;9.65;;;5.03;;
36751;SDS011;22718;49.494;7.036;2023-03-20T10:08:40;10.20;;;4.18;;
36751;SDS011;22718;49.494;7.036;2023-03-20T10:16:43;11.02;;;4.25;;
36751;SDS011;22718;49.494;7.036;2023-03-20T10:19:31;10.45;;;3.88;;
36751;SDS011;22718;49.494;7.036;2023-03-20T10:25:13;11.90;;;3.77;;
36751;SDS011;22718;49.494;7.036;2023-03-20T10:27:58;9.13;;;4.55;;
36751;SDS011;22718;49.494;7.036;2023-03-20T10:30:45;11.77;;;4.13;;
36751;SDS011;22718;49.494;7.036;2023-03-20T10:33:37;9.45;;;4.28;;
36751;SDS011;22718;49.494;7.036;2023-03-20T10:36:42;11.05;;;4.05;;
36751;SDS011;22718;49.494;7.036;2023-03-20T10:39:45;9.43;;;3.65;;
36751;SDS011;22718;49.494;7.036;2023-03-20T10:42:32;9.55;;;4.80;;
36751;SDS011;22718;49.494;7.036;2023-03-20T10:47:37;8.82;;;3.92;;
36751;SDS011;22718;49.494;7.036;2023-03-20T10:52:41;10.70;;;4.22;;
36751;SDS011;22718;49.494;7.036;2023-03-20T10:55:19;8.10;;;4.20;;
36751;SDS011;22718;49.494;7.036;2023-03-20T10:57:54;9.73;;;4.15;;
36751;SDS011;22718;49.494;7.036;2023-03-20T11:00:47;11.70;;;4.28;;
36751;SDS011;22718;49.494;7.036;2023-03-20T11:03:19;7.55;;;3.95;;
36751;SDS011;22718;49.494;7.036;2023-03-20T11:05:48;9.70;;;3.85;;
36751;SDS011;22718;49.494;7.036;2023-03-20T11:08:21;7.85;;;3.47;;
36751;SDS011;22718;49.494;7.036;2023-03-20T11:10:59;7.60;;;2.80;;
36751;SDS011;22718;49.494;7.036;2023-03-20T11:15:52;8.90;;;3.22;;
36751;SDS011;22718;49.494;7.036;2023-03-20T11:18:19;7.55;;;3.33;;
36751;SDS011;22718;49.494;7.036;2023-03-20T11:20:50;7.30;;;3.22;;
36751;SDS011;22718;49.494;7.036;2023-03-20T11:23:19;8.13;;;3.05;;
36751;SDS011;22718;49.494;7.036;2023-03-20T11:25:51;8.10;;;2.97;;
36751;SDS011;22718;49.494;7.036;2023-03-20T11:28:34;7.78;;;2.30;;
36751;SDS011;22718;49.494;7.036;2023-03-20T11:33:50;6.30;;;2.72;;
36751;SDS011;22718;49.494;7.036;2023-03-20T11:36:29;8.27;;;2.95;;
36751;SDS011;22718;49.494;7.036;2023-03-20T11:39:11;6.68;;;2.45;;
36751;SDS011;22718;49.494;7.036;2023-03-20T11:41:46;5.78;;;2.40;;
36751;SDS011;22718;49.494;7.036;2023-03-20T11:46:59;7.90;;;2.28;;
36751;SDS011;22718;49.494;7.036;2023-03-20T11:49:30;4.90;;;1.88;;
36751;SDS011;22718;49.494;7.036;2023-03-20T11:52:10;5.38;;;2.13;;
36751;SDS011;22718;49.494;7.036;2023-03-20T11:59:39;8.23;;;2.83;;
36751;SDS011;22718;49.494;7.036;2023-03-20T12:02:16;8.95;;;2.35;;
36751;SDS011;22718;49.494;7.036;2023-03-20T12:04:43;7.53;;;2.10;;
36751;SDS011;22718;49.494;7.036;2023-03-20T12:07:31;6.57;;;1.83;;
36751;SDS011;22718;49.494;7.036;2023-03-20T12:10:06;7.95;;;1.52;;
36751;SDS011;22718;49.494;7.036;2023-03-20T12:18:10;9.40;;;1.80;;
36751;SDS011;22718;49.494;7.036;2023-03-20T12:20:57;7.38;;;1.75;;
36751;SDS011;22718;49.494;7.036;2023-03-20T12:23:48;4.57;;;1.40;;
36751;SDS011;22718;49.494;7.036;2023-03-20T12:27:11;7.07;;;2.22;;
36751;SDS011;22718;49.494;7.036;2023-03-20T12:32:09;7.00;;;2.58;;
36751;SDS011;22718;49.494;7.036;2023-03-20T12:34:39;9.40;;;3.35;;
36751;SDS011;22718;49.494;7.036;2023-03-20T12:37:11;6.30;;;2.25;;
36751;SDS011;22718;49.494;7.036;2023-03-20T12:39:49;6.28;;;2.22;;
36751;SDS011;22718;49.494;7.036;2023-03-20T12:46:08;5.97;;;2.03;;
36751;SDS011;22718;49.494;7.036;2023-03-20T12:48:13;8.23;;;3.47;;
36751;SDS011;22718;49.494;7.036;2023-03-20T12:51:42;7.65;;;2.28;;
36751;SDS011;22718;49.494;7.036;2023-03-20T12:54:09;6.90;;;2.47;;
36751;SDS011;22718;49.494;7.036;2023-03-20T12:57:10;5.82;;;2.67;;
36751;SDS011;22718;49.494;7.036;2023-03-20T13:03:15;8.82;;;2.58;;
36751;SDS011;22718;49.494;7.036;2023-03-20T13:13:53;5.93;;;2.30;;
36751;SDS011;22718;49.494;7.036;2023-03-20T13:19:00;5.43;;;1.38;;
36751;SDS011;22718;49.494;7.036;2023-03-20T13:21:32;8.13;;;2.60;;
36751;SDS011;22718;49.494;7.036;2023-03-20T13:26:35;6.03;;;2.15;;
36751;SDS011;22718;49.494;7.036;2023-03-20T13:37:22;5.68;;;2.30;;
36751;SDS011;22718;49.494;7.036;2023-03-20T13:47:57;5.75;;;1.70;;
36751;SDS011;22718;49.494;7.036;2023-03-20T13:50:44;5.20;;;1.35;;
36751;SDS011;22718;49.494;7.036;2023-03-20T13:53:34;5.65;;;1.83;;
36751;SDS011;22718;49.494;7.036;2023-03-20T13:58:50;6.13;;;1.73;;
36751;SDS011;22718;49.494;7.036;2023-03-20T14:01:54;3.55;;;1.20;;
36751;SDS011;22718;49.494;7.036;2023-03-20T14:04:42;3.80;;;0.87;;
36751;SDS011;22718;49.494;7.036;2023-03-20T14:09:55;5.68;;;1.48;;
36751;SDS011;22718;49.494;7.036;2023-03-20T14:12:24;7.43;;;1.65;;
36751;SDS011;22718;49.494;7.036;2023-03-20T14:14:52;6.28;;;1.90;;
36751;SDS011;22718;49.494;7.036;2023-03-20T14:17:25;4.75;;;0.90;;
36751;SDS011;22718;49.494;7.036;2023-03-20T14:19:53;5.03;;;1.20;;
36751;SDS011;22718;49.494;7.036;2023-03-20T14:22:33;6.03;;;1.17;;
36751;SDS011;22718;49.494;7.036;2023-03-20T14:25:03;6.05;;;1.17;;
36751;SDS011;22718;49.494;7.036;2023-03-20T14:27:35;7.10;;;1.23;;
36751;SDS011;22718;49.494;7.036;2023-03-20T14:32:57;6.53;;;1.42;;
36751;SDS011;22718;49.494;7.036;2023-03-20T14:35:28;5.47;;;1.10;;
36751;SDS011;22718;49.494;7.036;2023-03-20T14:38:00;5.88;;;1.42;;
36751;SDS011;22718;49.494;7.036;2023-03-20T14:40:28;6.70;;;1.13;;
36751;SDS011;22718;49.494;7.036;2023-03-20T14:50:57;3.65;;;0.90;;
36751;SDS011;22718;49.494;7.036;2023-03-20T14:53:57;6.72;;;1.60;;
36751;SDS011;22718;49.494;7.036;2023-03-20T14:56:45;8.10;;;1.77;;
36751;SDS011;22718;49.494;7.036;2023-03-20T14:59:12;4.55;;;0.98;;
36751;SDS011;22718;49.494;7.036;2023-03-20T15:01:43;7.45;;;0.85;;
36751;SDS011;22718;49.494;7.036;2023-03-20T15:07:09;2.58;;;0.57;;
36751;SDS011;22718;49.494;7.036;2023-03-20T15:09:44;4.03;;;0.75;;
36751;SDS011;22718;49.494;7.036;2023-03-20T15:12:13;3.10;;;0.80;;
36751;SDS011;22718;49.494;7.036;2023-03-20T15:14:43;11.68;;;3.17;;
36751;SDS011;22718;49.494;7.036;2023-03-20T15:17:20;2.15;;;0.60;;
36751;SDS011;22718;49.494;7.036;2023-03-20T15:19:49;3.75;;;0.60;;
36751;SDS011;22718;49.494;7.036;2023-03-20T15:22:23;6.38;;;0.80;;
36751;SDS011;22718;49.494;7.036;2023-03-20T15:24:53;4.32;;;1.05;;
36751;SDS011;22718;49.494;7.036;2023-03-20T15:27:24;6.63;;;0.60;;
36751;SDS011;22718;49.494;7.036;2023-03-20T15:29:54;4.07;;;0.70;;
36751;SDS011;22718;49.494;7.036;2023-03-20T15:32:24;3.47;;;0.73;;
36751;SDS011;22718;49.494;7.036;2023-03-20T15:34:50;8.98;;;1.80;;
36751;SDS011;22718;49.494;7.036;2023-03-20T15:37:18;4.72;;;0.60;;
36751;SDS011;22718;49.494;7.036;2023-03-20T15:39:50;5.57;;;0.63;;
36751;SDS011;22718;49.494;7.036;2023-03-20T15:42:20;1.80;;;0.40;;
36751;SDS011;22718;49.494;7.036;2023-03-20T15:44:50;4.60;;;0.40;;
36751;SDS011;22718;49.494;7.036;2023-03-20T15:47:18;3.53;;;0.50;;
36751;SDS011;22718;49.494;7.036;2023-03-20T15:52:33;4.88;;;0.93;;
36751;SDS011;22718;49.494;7.036;2023-03-20T15:55:06;4.00;;;0.70;;
36751;SDS011;22718;49.494;7.036;2023-03-20T15:57:38;7.88;;;1.00;;
36751;SDS011;22718;49.494;7.036;2023-03-20T16:00:08;5.85;;;0.50;;
36751;SDS011;22718;49.494;7.036;2023-03-20T16:02:40;5.43;;;0.50;;
36751;SDS011;22718;49.494;7.036;2023-03-20T16:05:09;4.20;;;0.55;;
36751;SDS011;22718;49.494;7.036;2023-03-20T16:07:37;1.98;;;0.40;;
36751;SDS011;22718;49.494;7.036;2023-03-20T16:10:11;3.83;;;0.85;;
36751;SDS011;22718;49.494;7.036;2023-03-20T16:12:50;3.03;;;0.30;;
36751;SDS011;22718;49.494;7.036;2023-03-20T16:15:20;6.22;;;0.70;;
36751;SDS011;22718;49.494;7.036;2023-03-20T16:17:50;2.80;;;0.60;;
36751;SDS011;22718;49.494;7.036;2023-03-20T16:20:18;2.05;;;0.50;;
36751;SDS011;22718;49.494;7.036;2023-03-20T16:22:45;4.70;;;0.45;;
36751;SDS011;22718;49.494;7.036;2023-03-20T16:25:14;3.55;;;0.50;;
36751;SDS011;22718;49.494;7.036;2023-03-20T16:27:41;5.22;;;0.63;;
36751;SDS011;22718;49.494;7.036;2023-03-20T16:30:16;2.90;;;0.40;;
36751;SDS011;22718;49.494;7.036;2023-03-20T16:32:44;2.45;;;0.40;;
36751;SDS011;22718;49.494;7.036;2023-03-20T16:35:19;5.03;;;0.63;;
36751;SDS011;22718;49.494;7.036;2023-03-20T16:37:58;6.25;;;0.70;;
36751;SDS011;22718;49.494;7.036;2023-03-20T16:42:56;7.85;;;1.13;;
36751;SDS011;22718;49.494;7.036;2023-03-20T16:45:36;7.00;;;1.83;;
36751;SDS011;22718;49.494;7.036;2023-03-20T16:50:35;5.72;;;0.70;;
36751;SDS011;22718;49.494;7.036;2023-03-20T16:53:09;7.82;;;0.63;;
36751;SDS011;22718;49.494;7.036;2023-03-20T16:55:48;9.02;;;0.90;;
36751;SDS011;22718;49.494;7.036;2023-03-20T16:58:26;7.20;;;0.80;;
36751;SDS011;22718;49.494;7.036;2023-03-20T17:03:43;5.03;;;0.57;;
36751;SDS011;22718;49.494;7.036;2023-03-20T17:08:49;4.82;;;0.73;;
36751;SDS011;22718;49.494;7.036;2023-03-20T17:11:25;3.28;;;0.45;;
36751;SDS011;22718;49.494;7.036;2023-03-20T17:13:54;3.22;;;0.73;;
36751;SDS011;22718;49.494;7.036;2023-03-20T17:16:21;4.50;;;0.40;;
36751;SDS011;22718;49.494;7.036;2023-03-20T17:18:47;6.28;;;0.40;;
36751;SDS011;22718;49.494;7.036;2023-03-20T17:21:34;6.28;;;0.82;;
36751;SDS011;22718;49.494;7.036;2023-03-20T17:24:00;4.00;;;0.98;;
36751;SDS011;22718;49.494;7.036;2023-03-20T17:26:29;6.75;;;0.43;;
36751;SDS011;22718;49.494;7.036;2023-03-20T17:28:55;3.78;;;0.65;;
36751;SDS011;22718;49.494;7.036;2023-03-20T17:31:21;6.43;;;0.55;;
36751;SDS011;22718;49.494;7.036;2023-03-20T17:33:49;2.95;;;0.30;;
36751;SDS011;22718;49.494;7.036;2023-03-20T17:36:25;4.00;;;0.45;;
36751;SDS011;22718;49.494;7.036;2023-03-20T17:38:53;3.75;;;0.30;;
36751;SDS011;22718;49.494;7.036;2023-03-20T17:41:20;4.78;;;0.95;;